createdAt,value
2023-03-28T00:00:51.660Z,4.05
2023-03-28T00:03:22.735Z,1.40
2023-03-28T00:05:50.588Z,3.78
2023-03-28T00:08:18.668Z,2.97
2023-03-28T00:10:46.167Z,1.92
2023-03-28T00:13:14.437Z,1.58
2023-03-28T00:15:42.678Z,3.30
2023-03-28T00:18:13.076Z,2.70
2023-03-28T00:20:43.742Z,4.75
2023-03-28T00:23:12.410Z,3.78
2023-03-28T00:25:43.706Z,2.33
2023-03-28T00:28:10.494Z,3.22
2023-03-28T00:30:37.413Z,1.50
2023-03-28T00:33:06.365Z,1.73
2023-03-28T00:35:33.650Z,1.85
2023-03-28T00:38:00.468Z,6.80
2023-03-28T00:40:27.791Z,0.95
2023-03-28T00:42:55.241Z,3.42
2023-03-28T00:45:23.000Z,3.40
2023-03-28T00:47:59.148Z,3.33
2023-03-28T00:50:28.281Z,2.50
2023-03-28T00:53:02.026Z,1.45
2023-03-28T00:55:41.992Z,2.80
2023-03-28T00:58:11.798Z,6.05
2023-03-28T01:00:41.544Z,1.65
2023-03-28T01:03:09.283Z,4.15
2023-03-28T01:05:36.685Z,4.10
2023-03-28T01:08:09.023Z,4.55
2023-03-28T01:10:36.161Z,2.22
2023-03-28T01:13:06.264Z,3.58
2023-03-28T01:15:33.797Z,7.22
2023-03-28T01:18:03.209Z,3.33
2023-03-28T01:20:49.452Z,7.03
2023-03-28T01:23:37.369Z,1.60
2023-03-28T01:26:42.390Z,4.25
2023-03-28T01:29:29.704Z,5.00
2023-03-28T01:32:28.253Z,3.60
2023-03-28T01:35:39.253Z,5.85
2023-03-28T01:38:17.222Z,6.05
2023-03-28T01:41:05.745Z,4.47
2023-03-28T01:43:48.841Z,8.20
2023-03-28T01:46:28.846Z,2.45
2023-03-28T01:48:55.708Z,6.50
2023-03-28T01:51:46.089Z,4.13
2023-03-28T01:54:44.155Z,5.25
2023-03-28T01:57:23.633Z,4.93
2023-03-28T02:00:19.846Z,5.75
2023-03-28T02:03:19.013Z,6.13
2023-03-28T02:05:57.281Z,1.85
2023-03-28T02:08:27.308Z,3.60
2023-03-28T02:11:12.896Z,5.65
2023-03-28T02:14:09.836Z,4.72
2023-03-28T02:17:00.766Z,3.85
2023-03-28T02:20:11.911Z,3.00
2023-03-28T02:23:20.863Z,2.92
2023-03-28T02:25:57.575Z,2.58
2023-03-28T02:28:44.455Z,3.35
2023-03-28T02:31:32.724Z,4.85
2023-03-28T02:34:01.878Z,5.80
2023-03-28T08:07:17.262Z,7.90
2023-03-28T08:09:46.232Z,3.08
2023-03-28T08:12:19.805Z,4.15
2023-03-28T08:14:47.804Z,2.40
2023-03-28T08:17:18.403Z,3.83
2023-03-28T08:19:45.573Z,2.83
2023-03-28T08:22:12.726Z,1.88
2023-03-28T08:24:47.181Z,2.05
2023-03-28T08:27:23.024Z,3.00
2023-03-28T08:29:53.716Z,2.33
2023-03-28T08:32:20.993Z,2.35
2023-03-28T08:34:48.550Z,3.42
2023-03-28T08:37:18.084Z,6.35
2023-03-28T08:39:48.258Z,2.35
2023-03-28T08:42:34.568Z,3.42
2023-03-28T08:45:16.880Z,3.42
2023-03-28T08:48:01.086Z,1.98
2023-03-28T08:50:36.735Z,2.30
2023-03-28T08:53:04.854Z,3.63
2023-03-28T08:55:35.952Z,2.80
2023-03-28T08:58:03.859Z,0.75
2023-03-28T09:00:33.712Z,2.33
2023-03-28T09:03:01.176Z,4.25
2023-03-28T09:05:40.741Z,0.77
2023-03-28T09:08:23.538Z,0.90
2023-03-28T09:11:23.336Z,2.50
2023-03-28T09:13:50.464Z,1.90
2023-03-28T09:16:25.379Z,1.10
2023-03-28T09:19:15.594Z,1.88
2023-03-28T09:21:46.324Z,0.55
2023-03-28T09:24:23.897Z,1.92
2023-03-28T09:27:26.876Z,4.35
2023-03-28T09:30:19.224Z,2.05
2023-03-28T09:32:49.761Z,2.28
2023-03-28T09:35:21.843Z,1.45
2023-03-28T09:37:54.920Z,1.05
2023-03-28T09:40:26.669Z,0.50
2023-03-28T09:43:58.607Z,0.95
2023-03-28T09:46:47.187Z,1.38
2023-03-28T09:49:25.409Z,1.55
2023-03-28T09:51:59.458Z,1.92
2023-03-28T09:54:36.088Z,1.70
2023-03-28T09:57:04.785Z,1.33
2023-03-28T09:59:41.112Z,0.43
2023-03-28T10:02:33.097Z,1.15
2023-03-28T10:05:30.197Z,0.82
2023-03-28T10:08:05.527Z,1.35
2023-03-28T10:11:20.209Z,0.45
2023-03-28T10:13:49.634Z,1.70
2023-03-28T10:16:31.229Z,1.00
2023-03-28T10:19:02.472Z,0.60
2023-03-28T10:21:37.527Z,2.63
2023-03-28T10:24:16.713Z,0.90
2023-03-28T10:26:50.804Z,0.50
2023-03-28T10:29:17.940Z,0.90
2023-03-28T10:31:49.421Z,0.40
2023-03-28T10:34:30.682Z,2.00
2023-03-28T10:37:03.172Z,0.63
2023-03-28T10:39:59.139Z,0.40
2023-03-28T10:42:51.925Z,1.48
2023-03-28T10:45:42.435Z,1.20
2023-03-28T10:48:12.088Z,0.40
2023-03-28T10:50:47.786Z,3.60
2023-03-28T10:53:39.145Z,0.70
2023-03-28T10:56:18.988Z,1.27
2023-03-28T10:59:25.440Z,0.38
2023-03-28T11:01:57.409Z,1.27
2023-03-28T11:04:56.733Z,0.88
2023-03-28T11:07:46.722Z,0.57
2023-03-28T11:10:38.417Z,0.63
2023-03-28T11:13:27.026Z,2.78
2023-03-28T11:15:57.106Z,2.85
2023-03-28T11:18:58.155Z,0.65
2023-03-28T11:21:41.154Z,0.90
2023-03-28T11:24:48.295Z,0.65
2023-03-28T11:27:47.319Z,0.50
2023-03-28T11:30:32.927Z,0.60
2023-03-28T11:33:48.390Z,0.55
2023-03-28T11:36:25.873Z,0.40
2023-03-28T11:39:21.917Z,0.52
2023-03-28T11:41:49.925Z,0.60
2023-03-28T11:45:03.184Z,1.05
2023-03-28T11:47:37.883Z,0.45
2023-03-28T11:50:17.373Z,0.13
2023-03-28T11:53:18.662Z,0.82
2023-03-28T11:56:04.447Z,0.38
2023-03-28T11:58:59.105Z,0.65
2023-03-28T12:01:29.695Z,0.45
2023-03-28T12:03:59.767Z,1.13
2023-03-28T12:07:03.441Z,1.13
2023-03-28T12:09:59.019Z,1.73
2023-03-28T12:12:31.706Z,1.45
2023-03-28T12:15:19.089Z,0.30
2023-03-28T12:18:46.791Z,0.25
2023-03-28T12:21:43.595Z,0.75
2023-03-28T12:24:34.359Z,0.45
2023-03-28T12:27:25.709Z,0.45
2023-03-28T12:30:22.563Z,1.17
2023-03-28T12:32:59.918Z,1.02
2023-03-28T12:35:54.233Z,0.80
2023-03-28T12:38:35.433Z,0.75
2023-03-28T12:41:21.287Z,0.93
2023-03-28T12:43:56.987Z,3.03
2023-03-28T12:46:34.509Z,1.10
2023-03-28T12:49:05.730Z,0.50
2023-03-28T12:51:37.597Z,0.30
2023-03-28T12:54:16.895Z,0.70
2023-03-28T12:56:48.340Z,0.65
2023-03-28T12:59:40.306Z,1.30
2023-03-28T13:02:37.221Z,1.13
2023-03-28T13:05:49.481Z,0.60
2023-03-28T13:08:24.412Z,1.23
2023-03-28T13:11:35.626Z,2.10
2023-03-28T13:14:09.378Z,0.68
2023-03-28T13:16:46.916Z,0.98
2023-03-28T13:19:18.008Z,1.05
2023-03-28T13:21:55.539Z,0.40
2023-03-28T13:24:25.296Z,0.77
2023-03-28T13:26:56.342Z,0.50
2023-03-28T13:29:25.518Z,1.67
2023-03-28T13:31:55.397Z,0.90
2023-03-28T13:34:24.120Z,0.80
2023-03-28T13:36:54.260Z,1.83
2023-03-28T13:39:25.515Z,0.60
2023-03-28T13:41:52.787Z,1.02
2023-03-28T13:44:31.570Z,1.50
2023-03-28T13:47:00.864Z,2.13
2023-03-28T13:49:30.804Z,0.65
2023-03-28T13:52:04.460Z,1.75
2023-03-28T13:54:31.943Z,2.97
2023-03-28T13:57:05.398Z,2.55
2023-03-28T13:59:38.021Z,1.77
2023-03-28T14:02:39.221Z,2.70
2023-03-28T14:05:21.322Z,1.20
2023-03-28T14:07:48.665Z,0.88
2023-03-28T14:10:34.045Z,0.98
2023-03-28T14:13:28.291Z,0.70
2023-03-28T14:15:56.165Z,1.13
2023-03-28T14:18:34.125Z,1.80
2023-03-28T14:21:01.587Z,0.73
2023-03-28T14:23:32.823Z,1.25
2023-03-28T14:26:07.668Z,2.00
2023-03-28T14:28:40.054Z,0.57
2023-03-28T14:31:12.389Z,1.05
2023-03-28T14:33:39.219Z,1.33
2023-03-28T14:36:06.462Z,1.33
2023-03-28T14:38:38.595Z,1.35
2023-03-28T14:41:08.131Z,0.63
2023-03-28T14:43:35.896Z,1.52
2023-03-28T14:46:06.902Z,2.25
2023-03-28T14:48:34.267Z,0.43
2023-03-28T14:51:04.161Z,1.92
2023-03-28T14:53:35.912Z,0.40
2023-03-28T14:56:11.374Z,1.48
2023-03-28T14:58:40.434Z,1.60
2023-03-28T15:01:07.992Z,1.23
2023-03-28T15:03:39.924Z,1.15
2023-03-28T15:06:08.285Z,1.73
2023-03-28T15:08:39.620Z,2.75
2023-03-28T15:11:19.749Z,2.75
2023-03-28T15:13:49.123Z,0.80
2023-03-28T15:16:23.508Z,1.00
2023-03-28T15:19:09.556Z,1.55
2023-03-28T15:21:37.493Z,1.50
2023-03-28T15:24:05.957Z,1.40
2023-03-28T15:26:38.327Z,3.25
2023-03-28T15:29:07.156Z,0.52
2023-03-28T15:31:38.352Z,0.55
2023-03-28T15:34:10.262Z,1.00
2023-03-28T15:36:37.222Z,1.80
2023-03-28T15:39:27.714Z,0.68
2023-03-28T15:41:59.908Z,7.78
2023-03-28T15:44:29.758Z,4.65
2023-03-28T15:47:21.289Z,5.07
2023-03-28T15:49:51.257Z,3.05
2023-03-28T15:52:20.584Z,2.67
2023-03-28T15:54:52.964Z,1.05
2023-03-28T15:57:21.849Z,2.53
2023-03-28T15:59:54.125Z,0.93
2023-03-28T16:02:32.215Z,3.60
2023-03-28T16:05:11.203Z,1.38
2023-03-28T16:07:43.922Z,0.38
2023-03-28T16:10:13.518Z,2.13
2023-03-28T16:13:00.323Z,3.85
2023-03-28T16:15:46.213Z,2.17
2023-03-28T16:18:25.016Z,2.38
2023-03-28T16:20:56.764Z,1.35
2023-03-28T16:23:23.726Z,2.45
2023-03-28T16:25:50.502Z,1.05
2023-03-28T16:28:18.682Z,2.80
2023-03-28T16:30:46.113Z,1.80
2023-03-28T16:33:13.716Z,3.53
2023-03-28T16:35:40.708Z,2.70
2023-03-28T16:38:07.787Z,3.75
2023-03-28T16:40:34.649Z,2.90
2023-03-28T16:43:01.587Z,1.45
2023-03-28T16:45:30.012Z,2.63
2023-03-28T16:47:57.328Z,2.35
2023-03-28T16:50:24.177Z,3.10
2023-03-28T16:52:51.087Z,3.65
2023-03-28T16:55:18.288Z,2.58
2023-03-28T16:57:45.947Z,6.50
2023-03-28T17:00:18.225Z,2.05
2023-03-28T17:02:47.238Z,1.85
2023-03-28T17:05:15.050Z,2.17
2023-03-28T17:07:41.994Z,2.70
2023-03-28T17:10:09.631Z,4.30
2023-03-28T17:12:37.220Z,7.15
2023-03-28T17:15:04.324Z,2.42
2023-03-28T17:17:32.247Z,2.17
2023-03-28T17:20:00.571Z,2.65
2023-03-28T17:22:27.496Z,3.22
2023-03-28T17:24:57.151Z,3.03
2023-03-28T17:27:24.325Z,3.17
2023-03-28T17:29:51.953Z,4.63
2023-03-28T17:32:19.005Z,5.18
2023-03-28T17:34:46.071Z,4.38
2023-03-28T17:37:12.847Z,6.13
2023-03-28T17:39:39.992Z,9.68
2023-03-28T17:42:07.358Z,11.23
2023-03-28T17:44:34.168Z,8.40
2023-03-28T17:47:01.064Z,6.47
2023-03-28T17:49:28.131Z,8.27
2023-03-28T17:51:56.907Z,8.70
2023-03-28T17:54:25.512Z,5.60
2023-03-28T17:56:53.174Z,5.35
